Time;durP1;ratioP1;P1;durP2;ratioP2;P2;SDS_P1;SDS_P2;PMS_P1;PMS_P2;Temp;Humidity;BMP_temperature;BMP_pressure;BME280_temperature;BME280_humidity;BME280_pressure;Samples;Min_cycle;Max_cycle;Signal;HPM_P1;HPM_P2
2023/03/20 00:01:59;;;;;;;5.85;3.05;;;;;;;5.61;100.00;101808.63;4906919;28;20141;-73
2023/03/20 00:04:25;;;;;;;7.95;3.30;;;;;;;5.61;100.00;101808.63;4925339;28;20659;-73
2023/03/20 00:06:50;;;;;;;7.78;3.20;;;;;;;5.62;100.00;101812.97;4941090;28;20062;-73
2023/03/20 00:09:16;;;;;;;8.55;3.63;;;;;;;5.64;100.00;101821.72;4943455;28;20047;-73
2023/03/20 00:11:53;;;;;;;6.13;3.20;;;;;;;5.66;100.00;101825.22;4932441;28;20101;-73
2023/03/20 00:14:21;;;;;;;7.38;3.63;;;;;;;5.67;100.00;101833.06;4931777;28;20069;-73
2023/03/20 00:16:48;;;;;;;8.57;3.65;;;;;;;5.69;100.00;101827.81;4941196;28;20161;-73
2023/03/20 00:19:22;;;;;;;11.32;3.80;;;;;;;5.70;100.00;101832.16;4927971;28;20473;-74
2023/03/20 00:21:49;;;;;;;6.25;3.75;;;;;;;5.73;100.00;101834.78;4931917;28;20129;-73
2023/03/20 00:24:15;;;;;;;6.75;3.33;;;;;;;5.73;100.00;101832.16;4948353;28;20043;-73
2023/03/20 00:26:44;;;;;;;7.10;3.90;;;;;;;5.75;100.00;101835.63;4944963;28;20767;-73
2023/03/20 00:29:19;;;;;;;9.38;3.40;;;;;;;5.77;100.00;101833.00;4927051;28;20051;-73
2023/03/20 00:31:45;;;;;;;8.02;3.25;;;;;;;5.77;100.00;101839.09;4927168;28;20051;-73
2023/03/20 00:34:16;;;;;;;7.30;3.42;;;;;;;5.81;100.00;101845.22;4929781;28;20105;-73
2023/03/20 00:36:42;;;;;;;8.88;3.28;;;;;;;5.82;100.00;101842.56;4943289;28;20043;-73
2023/03/20 00:39:10;;;;;;;6.03;2.95;;;;;;;5.83;100.00;101857.44;4944597;28;20611;-74
2023/03/20 00:41:38;;;;;;;5.28;3.28;;;;;;;5.85;100.00;101857.44;4944352;28;20502;-73
2023/03/20 00:44:23;;;;;;;6.57;3.20;;;;;;;5.86;100.00;101853.94;4944254;28;20054;-73
2023/03/20 00:46:52;;;;;;;7.65;2.72;;;;;;;5.87;100.00;101849.56;4924944;28;20050;-74
2023/03/20 00:49:21;;;;;;;8.75;3.40;;;;;;;5.88;100.00;101854.78;4931811;28;20138;-73
2023/03/20 00:51:47;;;;;;;10.30;3.30;;;;;;;5.89;100.00;101853.03;4927605;28;20046;-73
2023/03/20 00:54:15;;;;;;;9.73;3.20;;;;;;;5.90;100.00;101860.91;4940703;28;20122;-73
2023/03/20 00:56:56;;;;;;;5.35;2.97;;;;;;;5.91;100.00;101856.50;4926444;28;20125;-73
2023/03/20 00:59:24;;;;;;;9.95;3.38;;;;;;;5.92;100.00;101853.88;4943753;28;20325;-73
2023/03/20 01:01:50;;;;;;;7.95;3.53;;;;;;;5.93;100.00;101852.09;4927048;28;20133;-73
2023/03/20 01:04:17;;;;;;;7.93;3.65;;;;;;;5.93;100.00;101855.59;4913914;28;20062;-73
2023/03/20 01:06:44;;;;;;;9.57;3.30;;;;;;;5.94;100.00;101854.72;4940594;28;20410;-74
2023/03/20 01:09:09;;;;;;;8.68;3.40;;;;;;;5.96;100.00;101859.97;4947957;28;20428;-73
2023/03/20 01:11:36;;;;;;;9.23;3.70;;;;;;;5.96;100.00;101859.97;4940673;28;20114;-73
2023/03/20 01:14:02;;;;;;;10.23;3.35;;;;;;;5.98;100.00;101858.19;4943892;28;20035;-73
2023/03/20 01:16:27;;;;;;;7.03;3.45;;;;;;;5.98;100.00;101842.41;4926536;28;20057;-73
2023/03/20 01:18:53;;;;;;;11.35;3.72;;;;;;;5.98;100.00;101843.28;4914565;28;20723;-73
2023/03/20 01:21:19;;;;;;;6.90;3.50;;;;;;;5.98;100.00;101842.41;4943133;28;20782;-73
2023/03/20 01:23:46;;;;;;;11.25;3.60;;;;;;;5.98;100.00;101826.63;4919090;28;21998;-73
2023/03/20 01:26:21;;;;;;;12.00;3.75;;;;;;;5.98;100.00;101824.91;4919729;28;20054;-73
2023/03/20 01:28:47;;;;;;;10.50;3.75;;;;;;;6.00;100.00;101832.78;4945077;28;20070;-73
2023/03/20 01:31:15;;;;;;;7.28;3.67;;;;;;;6.01;100.00;101825.75;4947479;28;21562;-73
2023/03/20 01:33:41;;;;;;;9.93;4.05;;;;;;;6.02;100.00;101828.41;4932677;28;20165;-73
2023/03/20 01:36:12;;;;;;;9.35;3.88;;;;;;;6.03;100.00;101824.88;4947640;28;20054;-73
2023/03/20 01:38:38;;;;;;;9.07;3.97;;;;;;;6.03;100.00;101819.63;4948796;28;20399;-73
2023/03/20 01:41:18;;;;;;;9.55;3.95;;;;;;;6.04;100.00;101813.47;4950898;28;20058;-73
2023/03/20 01:43:44;;;;;;;11.10;3.95;;;;;;;6.06;100.00;101829.22;4935115;28;20589;-73
2023/03/20 01:46:10;;;;;;;12.13;3.90;;;;;;;6.07;100.00;101818.72;4930500;28;20465;-73
2023/03/20 01:48:51;;;;;;;8.88;3.95;;;;;;;6.07;100.00;101816.06;4945213;28;20066;-73
2023/03/20 01:51:17;;;;;;;10.23;4.38;;;;;;;6.10;100.00;101815.19;4948033;28;20161;-73
2023/03/20 01:53:44;;;;;;;9.95;4.35;;;;;;;6.11;100.00;101809.03;4943463;28;20043;-73
2023/03/20 01:56:11;;;;;;;13.70;4.55;;;;;;;6.11;100.00;101788.84;4942626;28;20050;-73
2023/03/20 01:58:41;;;;;;;10.63;4.57;;;;;;;6.13;100.00;101782.69;4947225;28;20047;-73
2023/03/20 02:01:09;;;;;;;10.00;4.65;;;;;;;6.13;100.00;101790.56;4946734;28;20046;-73
2023/03/20 02:03:35;;;;;;;10.18;4.93;;;;;;;6.15;100.00;101796.72;4931292;28;20479;-73
2023/03/20 02:06:00;;;;;;;9.05;4.82;;;;;;;6.16;100.00;101793.19;4947340;28;20057;-73
2023/03/20 02:08:29;;;;;;;13.75;4.55;;;;;;;6.18;100.00;101780.88;4946880;28;20413;-73
2023/03/20 02:10:56;;;;;;;10.80;4.50;;;;;;;6.17;100.00;101779.16;4941860;28;20862;-73
2023/03/20 02:13:21;;;;;;;6.90;3.88;;;;;;;6.19;100.00;101777.38;4934825;28;20046;-73
2023/03/20 02:15:57;;;;;;;10.65;4.45;;;;;;;6.19;100.00;101787.88;4942814;28;20051;-73
2023/03/20 02:18:23;;;;;;;8.95;4.15;;;;;;;6.20;100.00;101779.09;4946947;28;20098;-73
2023/03/20 02:21:14;;;;;;;11.52;4.45;;;;;;;6.20;100.00;101779.09;4929908;28;20426;-73
2023/03/20 02:23:52;;;;;;;15.20;4.35;;;;;;;6.20;100.00;101779.97;4946720;28;20078;-73
2023/03/20 02:26:21;;;;;;;8.43;3.88;;;;;;;6.21;100.00;101771.19;4947434;28;20055;-73
2023/03/20 02:29:08;;;;;;;10.30;4.47;;;;;;;6.21;100.00;101776.47;4932557;28;20583;-73
2023/03/20 02:31:49;;;;;;;10.98;4.97;;;;;;;6.22;100.00;101769.44;4946405;28;20081;-73
2023/03/20 02:34:28;;;;;;;8.70;4.55;;;;;;;6.22;100.00;101766.81;4946750;28;20758;-74
2023/03/20 02:37:02;;;;;;;8.27;4.60;;;;;;;6.22;100.00;101756.31;4943662;28;20062;-73
2023/03/20 02:39:49;;;;;;;9.25;5.05;;;;;;;6.23;100.00;101739.63;4944878;28;20051;-73
2023/03/20 02:42:42;;;;;;;12.73;4.82;;;;;;;6.24;100.00;101739.63;4946923;28;20054;-73
2023/03/20 02:45:53;;;;;;;7.40;4.30;;;;;;;6.25;100.00;101741.34;4938022;28;20064;-73
2023/03/20 02:48:31;;;;;;;9.13;4.43;;;;;;;6.27;100.00;101741.34;4920379;28;20376;-73
2023/03/20 02:51:37;;;;;;;7.28;4.07;;;;;;;6.28;100.00;101739.56;4946317;28;20074;-73
2023/03/20 02:54:24;;;;;;;7.10;4.00;;;;;;;6.28;100.00;101737.81;4893473;29;20177;-73
2023/03/20 02:57:00;;;;;;;9.60;4.45;;;;;;;6.30;100.00;101729.88;4928409;28;20153;-73
2023/03/20 02:59:31;;;;;;;6.68;4.15;;;;;;;6.31;100.00;101739.53;4927700;28;20058;-73
2023/03/20 03:02:03;;;;;;;8.23;3.88;;;;;;;6.32;100.00;101736.88;4944122;28;20110;-73
2023/03/20 03:04:36;;;;;;;6.70;4.05;;;;;;;6.35;100.00;101733.31;4946702;28;20092;-73
2023/03/20 03:07:03;;;;;;;9.38;4.28;;;;;;;6.35;100.00;101726.31;4933958;28;20058;-73
2023/03/20 03:09:42;;;;;;;10.63;3.70;;;;;;;6.36;100.00;101717.53;4945622;28;20390;-73
2023/03/20 03:12:23;;;;;;;7.53;4.38;;;;;;;6.36;100.00;101717.53;4944826;28;20065;-72
2023/03/20 03:14:55;;;;;;;9.05;4.25;;;;;;;6.36;100.00;101725.44;4928383;28;20117;-73
2023/03/20 03:17:23;;;;;;;7.63;4.07;;;;;;;6.36;100.00;101717.53;4928320;28;20127;-73
2023/03/20 03:19:50;;;;;;;7.03;4.00;;;;;;;6.36;100.00;101719.28;4931046;28;20253;-73
2023/03/20 03:22:17;;;;;;;6.28;3.83;;;;;;;6.37;100.00;101721.00;4928271;28;20054;-73
2023/03/20 03:24:45;;;;;;;6.28;3.90;;;;;;;6.36;100.00;101722.78;4933934;28;20053;-72
2023/03/20 03:27:52;;;;;;;9.57;4.60;;;;;;;6.35;100.00;101707.91;4942488;28;20054;-73
2023/03/20 03:30:24;;;;;;;8.35;4.50;;;;;;;6.34;100.00;101702.66;4874983;29;20091;-73
2023/03/20 03:33:16;;;;;;;10.57;4.20;;;;;;;6.32;100.00;101705.31;4861845;29;20075;-73
2023/03/20 03:35:42;;;;;;;7.35;4.55;;;;;;;6.32;100.00;101704.47;4910963;28;20058;-73
2023/03/20 03:38:26;;;;;;;11.00;4.75;;;;;;;6.30;100.00;101701.84;4930284;28;20042;-73
2023/03/20 03:41:05;;;;;;;8.88;4.63;;;;;;;6.30;100.00;101693.94;4948692;28;20061;-73
2023/03/20 03:44:12;;;;;;;11.63;4.78;;;;;;;6.31;100.00;101698.31;4927534;28;20566;-73
2023/03/20 03:46:43;;;;;;;10.40;5.28;;;;;;;6.29;100.00;101697.47;4908721;28;20613;-73
2023/03/20 03:49:13;;;;;;;11.15;5.82;;;;;;;6.28;100.00;101692.22;4927513;28;20127;-72
2023/03/20 03:51:41;;;;;;;14.90;6.38;;;;;;;6.28;100.00;101694.84;4933188;28;20043;-73
2023/03/20 03:54:13;;;;;;;12.20;5.88;;;;;;;6.27;100.00;101693.13;4932765;28;20066;-73
2023/03/20 03:56:40;;;;;;;14.57;6.60;;;;;;;6.26;100.00;101689.59;4932861;28;20101;-72
2023/03/20 03:59:10;;;;;;;13.45;6.90;;;;;;;6.24;100.00;101691.41;4939947;28;20049;-73
2023/03/20 04:01:37;;;;;;;14.70;6.78;;;;;;;6.22;100.00;101683.53;4929869;28;20135;-73
2023/03/20 04:04:06;;;;;;;14.23;6.88;;;;;;;6.22;100.00;101682.66;4939748;28;20174;-73
2023/03/20 04:06:32;;;;;;;13.48;6.10;;;;;;;6.20;100.00;101679.16;4945081;28;20204;-73
2023/03/20 04:08:57;;;;;;;14.55;6.65;;;;;;;6.21;100.00;101681.78;4932338;28;20058;-73
2023/03/20 04:11:25;;;;;;;13.70;5.75;;;;;;;6.20;100.00;101685.31;4932536;28;20130;-73
2023/03/20 04:13:51;;;;;;;13.98;6.43;;;;;;;6.19;100.00;101675.69;4925456;28;20524;-74
2023/03/20 04:16:19;;;;;;;10.93;5.75;;;;;;;6.18;100.00;101667.81;4943413;28;20046;-73
2023/03/20 04:18:45;;;;;;;12.43;5.70;;;;;;;6.18;100.00;101670.44;4944352;28;20529;-73
2023/03/20 04:21:10;;;;;;;14.63;5.55;;;;;;;6.18;100.00;101675.69;4944479;28;20449;-74
2023/03/20 04:23:36;;;;;;;12.68;5.68;;;;;;;6.18;100.00;101678.34;4925078;28;20555;-73
2023/03/20 04:26:02;;;;;;;12.75;5.40;;;;;;;6.17;100.00;101669.59;4944283;28;20394;-73
2023/03/20 04:28:28;;;;;;;14.48;5.93;;;;;;;6.17;100.00;101679.22;4900645;28;20053;-73
2023/03/20 04:30:55;;;;;;;13.45;5.80;;;;;;;6.16;100.00;101678.34;4894247;28;20042;-73
2023/03/20 04:33:21;;;;;;;11.60;5.78;;;;;;;6.15;100.00;101678.38;4931807;28;20144;-73
2023/03/20 04:35:46;;;;;;;17.83;6.35;;;;;;;6.16;100.00;101682.75;4943759;28;20051;-73
2023/03/20 04:38:12;;;;;;;13.50;6.50;;;;;;;6.14;100.00;101674.88;4927516;28;20142;-74
2023/03/20 04:40:37;;;;;;;15.63;6.45;;;;;;;6.13;100.00;101678.41;4942344;28;20325;-73
2023/03/20 04:43:03;;;;;;;14.50;6.75;;;;;;;6.13;100.00;101677.50;4944303;28;20055;-74
2023/03/20 04:45:28;;;;;;;16.08;7.03;;;;;;;6.11;100.00;101661.78;4926345;28;20038;-73
2023/03/20 04:47:54;;;;;;;18.88;6.90;;;;;;;6.08;100.00;101665.31;4944143;28;20130;-73
2023/03/20 04:50:19;;;;;;;16.13;7.78;;;;;;;6.08;100.00;101662.69;4931243;28;20046;-74
2023/03/20 04:52:45;;;;;;;20.27;8.07;;;;;;;6.07;100.00;101660.97;4940872;28;20054;-73
2023/03/20 04:55:10;;;;;;;19.77;8.52;;;;;;;6.06;100.00;101656.56;4928798;28;20552;-73
2023/03/20 04:57:36;;;;;;;21.05;8.23;;;;;;;6.05;100.00;101662.72;4926015;28;20042;-74
2023/03/20 05:00:03;;;;;;;20.10;8.65;;;;;;;6.04;100.00;101657.50;4943544;28;20514;-73
2023/03/20 05:02:28;;;;;;;23.40;8.93;;;;;;;6.04;100.00;101660.13;4943589;28;21578;-73
2023/03/20 05:04:54;;;;;;;18.88;8.88;;;;;;;6.03;100.00;101655.72;4943844;28;20073;-72
2023/03/20 05:07:20;;;;;;;20.08;8.48;;;;;;;6.02;100.00;101660.13;4944060;28;20177;-73
2023/03/20 05:09:45;;;;;;;19.45;8.85;;;;;;;6.03;100.00;101667.13;4916438;28;20722;-72
2023/03/20 05:12:11;;;;;;;19.92;8.15;;;;;;;6.02;100.00;101668.03;4939751;28;20043;-73
2023/03/20 05:14:36;;;;;;;20.55;7.88;;;;;;;6.02;100.00;101665.41;4925973;28;20051;-73
2023/03/20 05:17:02;;;;;;;18.42;7.65;;;;;;;6.01;100.00;101663.63;4924732;28;20071;-73
2023/03/20 05:19:28;;;;;;;16.88;8.15;;;;;;;6.02;100.00;101675.00;4914524;28;20502;-74
2023/03/20 05:21:53;;;;;;;18.85;8.15;;;;;;;6.02;100.00;101668.03;4943927;28;20249;-74
2023/03/20 05:24:19;;;;;;;22.20;8.95;;;;;;;6.02;100.00;101664.47;4943714;28;20518;-74
2023/03/20 05:26:45;;;;;;;19.95;8.63;;;;;;;6.01;100.00;101663.63;4926545;28;20062;-74
2023/03/20 05:29:10;;;;;;;14.15;6.70;;;;;;;6.01;100.00;101665.38;4942801;28;20407;-74
2023/03/20 05:31:36;;;;;;;16.33;7.47;;;;;;;6.01;100.00;101657.50;4943989;28;20055;-73
2023/03/20 05:34:01;;;;;;;17.73;7.72;;;;;;;5.99;100.00;101670.66;4930508;28;20051;-74
2023/03/20 05:36:27;;;;;;;21.73;8.18;;;;;;;5.99;100.00;101668.03;4914840;28;20049;-74
2023/03/20 05:38:52;;;;;;;16.58;7.57;;;;;;;5.98;100.00;101674.16;4942996;28;20166;-73
2023/03/20 05:41:18;;;;;;;18.45;8.00;;;;;;;5.97;100.00;101683.84;4913941;28;20523;-73
2023/03/20 05:43:43;;;;;;;17.48;7.93;;;;;;;5.98;100.00;101689.94;4930812;28;20410;-73
2023/03/20 05:46:08;;;;;;;20.33;9.05;;;;;;;5.98;100.00;101692.56;4939914;28;20697;-74
2023/03/20 05:48:34;;;;;;;22.50;8.70;;;;;;;5.99;100.00;101694.31;4930907;28;21820;-74
2023/03/20 05:50:59;;;;;;;16.23;8.35;;;;;;;5.97;100.00;101682.94;4923918;28;20062;-74
2023/03/20 05:53:25;;;;;;;16.98;8.20;;;;;;;5.97;100.00;101686.47;4925962;28;20141;-74
2023/03/20 05:55:50;;;;;;;19.20;8.15;;;;;;;5.95;100.00;101675.06;4943357;28;20104;-73
2023/03/20 05:58:19;;;;;;;20.58;9.57;;;;;;;5.95;100.00;101682.09;4941807;28;20054;-74
2023/03/20 06:00:44;;;;;;;19.25;8.98;;;;;;;5.96;100.00;101686.47;4947032;28;20355;-73
2023/03/20 06:03:10;;;;;;;19.35;9.63;;;;;;;5.96;100.00;101686.47;4928865;28;21022;-73
2023/03/20 06:05:36;;;;;;;20.50;9.10;;;;;;;5.95;100.00;101688.22;4939787;28;21676;-74
2023/03/20 06:08:02;;;;;;;20.23;9.30;;;;;;;5.96;100.00;101692.63;4944843;28;20076;-74
2023/03/20 06:10:28;;;;;;;18.33;9.02;;;;;;;5.96;100.00;101691.72;4946628;28;20043;-73
2023/03/20 06:12:55;;;;;;;19.10;9.35;;;;;;;5.97;100.00;101688.22;4982682;23;20113;-73
2023/03/20 06:15:21;;;;;;;19.23;9.80;;;;;;;5.97;100.00;101690.84;4937149;28;20046;-73
2023/03/20 06:17:47;;;;;;;21.73;9.40;;;;;;;5.98;100.00;101689.94;4933657;28;20066;-74
2023/03/20 06:20:13;;;;;;;22.92;9.73;;;;;;;5.97;100.00;101689.09;4917428;28;20510;-74
2023/03/20 06:22:38;;;;;;;20.55;9.55;;;;;;;5.98;100.00;101687.31;4954196;28;20062;-74
2023/03/20 06:25:05;;;;;;;24.92;10.45;;;;;;;5.99;100.00;101689.03;4936374;28;20178;-74
2023/03/20 06:27:31;;;;;;;20.63;10.15;;;;;;;5.99;100.00;101681.16;4932612;28;20710;-74
2023/03/20 06:29:56;;;;;;;21.77;9.60;;;;;;;6.00;100.00;101682.94;4937159;28;20057;-73
2023/03/20 06:32:21;;;;;;;21.58;9.98;;;;;;;6.01;100.00;101686.41;4954759;28;20082;-74
2023/03/20 06:34:47;;;;;;;22.52;9.85;;;;;;;6.03;100.00;101688.16;4951795;28;20049;-73
2023/03/20 06:37:12;;;;;;;27.13;10.38;;;;;;;6.04;100.00;101694.31;4951420;28;20425;-73
2023/03/20 06:39:38;;;;;;;20.45;9.35;;;;;;;6.04;100.00;101689.03;4954096;28;20058;-74
2023/03/20 06:42:04;;;;;;;25.10;10.18;;;;;;;6.05;100.00;101702.16;4953951;28;20490;-73
2023/03/20 06:44:29;;;;;;;23.55;10.10;;;;;;;6.07;100.00;101699.50;4954678;28;20046;-73
2023/03/20 06:46:55;;;;;;;21.02;8.93;;;;;;;6.08;100.00;101695.97;4936665;28;20525;-73
2023/03/20 06:49:20;;;;;;;21.90;9.98;;;;;;;6.10;100.00;101697.72;4952672;28;20047;-73
2023/03/20 06:51:47;;;;;;;25.88;10.77;;;;;;;6.13;100.00;101699.44;4954104;28;20065;-73
2023/03/20 06:54:12;;;;;;;23.58;10.20;;;;;;;6.14;100.00;101695.91;4937217;28;20054;-73
2023/03/20 06:56:38;;;;;;;24.48;9.75;;;;;;;6.17;100.00;101700.25;4952684;28;20043;-73
2023/03/20 06:59:03;;;;;;;21.00;9.55;;;;;;;6.18;100.00;101702.00;4954330;28;20491;-73
2023/03/20 07:01:29;;;;;;;22.77;9.80;;;;;;;6.22;100.00;101714.22;4953850;28;20157;-73
2023/03/20 07:03:55;;;;;;;20.55;10.35;;;;;;;6.26;100.00;101705.38;4953750;28;20059;-73
2023/03/20 07:06:21;;;;;;;21.48;10.80;;;;;;;6.29;100.00;101699.22;4936207;28;20058;-73
2023/03/20 07:08:47;;;;;;;24.20;9.93;;;;;;;6.33;100.00;101707.03;4952711;28;20051;-73
2023/03/20 07:11:13;;;;;;;20.92;10.10;;;;;;;6.36;100.00;101712.28;4953519;28;20081;-73
2023/03/20 07:13:38;;;;;;;21.38;9.95;;;;;;;6.40;100.00;101710.47;4952167;28;20249;-73
2023/03/20 07:16:04;;;;;;;22.30;10.38;;;;;;;6.44;100.00;101713.94;4951286;28;20086;-73
2023/03/20 07:18:30;;;;;;;23.00;10.38;;;;;;;6.47;100.00;101714.75;4953534;28;20105;-73
2023/03/20 07:21:01;;;;;;;24.13;10.90;;;;;;;6.50;100.00;101719.94;4935641;28;20046;-73
2023/03/20 07:23:28;;;;;;;24.90;10.25;;;;;;;6.51;100.00;101726.97;4933239;28;20042;-74
2023/03/20 07:25:54;;;;;;;22.83;10.55;;;;;;;6.52;100.00;101720.81;4953645;28;20043;-72
2023/03/20 07:28:19;;;;;;;21.70;10.80;;;;;;;6.55;100.00;101727.81;4953109;28;20477;-73
2023/03/20 07:30:45;;;;;;;22.95;11.55;;;;;;;6.54;100.00;101726.03;4953601;28;20073;-73
2023/03/20 07:33:10;;;;;;;18.42;9.80;;;;;;;6.57;100.00;101720.75;4953235;28;21665;-73
2023/03/20 07:35:38;;;;;;;21.05;9.85;;;;;;;6.59;100.00;101718.09;4951314;28;20175;-73
2023/03/20 07:38:04;;;;;;;23.42;9.48;;;;;;;6.62;100.00;101715.41;4953506;28;20552;-73
2023/03/20 07:40:30;;;;;;;21.00;9.63;;;;;;;6.64;100.00;101718.88;4917485;28;20110;-73
2023/03/20 07:42:55;;;;;;;20.98;10.25;;;;;;;6.66;100.00;101714.50;4935520;28;20974;-72
2023/03/20 07:45:21;;;;;;;22.27;10.38;;;;;;;6.68;100.00;101724.97;4935664;28;20050;-72
2023/03/20 07:47:47;;;;;;;19.83;9.38;;;;;;;6.69;100.00;101724.97;4952862;28;20685;-73
2023/03/20 07:50:13;;;;;;;18.60;9.23;;;;;;;6.70;100.00;101725.84;4934031;28;20156;-72
2023/03/20 07:52:38;;;;;;;22.38;10.57;;;;;;;6.71;100.00;101725.78;4949982;28;20047;-72
2023/03/20 07:55:04;;;;;;;20.55;9.48;;;;;;;6.73;100.00;101723.16;4953052;28;20055;-72
2023/03/20 07:57:30;;;;;;;16.85;8.77;;;;;;;6.77;100.00;101719.59;4952974;28;20042;-72
2023/03/20 07:59:55;;;;;;;19.48;9.52;;;;;;;6.81;100.00;101718.63;4952730;28;20394;-73
2023/03/20 08:02:21;;;;;;;18.52;9.63;;;;;;;6.86;100.00;101727.31;4935178;28;20053;-73
2023/03/20 08:04:46;;;;;;;21.45;9.35;;;;;;;6.89;100.00;101724.66;4935338;28;21441;-74
2023/03/20 08:07:12;;;;;;;22.63;9.38;;;;;;;6.91;100.00;101720.22;4951233;28;20082;-74
2023/03/20 08:09:37;;;;;;;18.42;8.55;;;;;;;6.93;100.00;101725.47;4952814;28;21577;-74
2023/03/20 08:12:04;;;;;;;15.63;8.45;;;;;;;6.96;100.00;101727.19;4952304;28;20125;-74
2023/03/20 08:14:29;;;;;;;18.75;8.85;;;;;;;6.97;100.00;101728.94;4935270;28;20114;-74
2023/03/20 08:16:55;;;;;;;15.35;8.68;;;;;;;7.01;100.00;101733.25;4952958;28;20784;-74
2023/03/20 08:19:20;;;;;;;18.20;8.32;;;;;;;7.04;100.00;101725.31;4940006;28;20057;-74
2023/03/20 08:21:46;;;;;;;16.95;8.65;;;;;;;7.09;100.00;101734.00;4952031;28;20522;-74
2023/03/20 08:24:12;;;;;;;15.68;8.13;;;;;;;7.11;100.00;101724.31;4934867;28;20054;-74
2023/03/20 08:26:37;;;;;;;17.77;8.70;;;;;;;7.15;100.00;101722.50;4949506;28;20051;-74
2023/03/20 08:29:03;;;;;;;17.13;8.15;;;;;;;7.18;100.00;101718.03;4952242;28;20130;-73
2023/03/20 08:31:28;;;;;;;14.65;7.95;;;;;;;7.23;100.00;101719.72;4952571;28;20074;-73
2023/03/20 08:33:55;;;;;;;20.67;7.90;;;;;;;7.26;100.00;101722.31;4952029;28;20403;-73
2023/03/20 08:36:20;;;;;;;15.27;7.70;;;;;;;7.28;100.00;101709.97;4949665;28;20042;-73
2023/03/20 08:38:47;;;;;;;13.70;7.38;;;;;;;7.31;100.00;101708.16;4928054;28;20073;-74
2023/03/20 08:41:15;;;;;;;17.92;8.45;;;;;;;7.34;100.00;101715.13;4945430;28;20043;-76
2023/03/20 08:43:41;;;;;;;15.48;7.80;;;;;;;7.37;100.00;101717.72;4935745;28;20070;-75
2023/03/20 08:46:09;;;;;;;15.45;7.93;;;;;;;7.39;100.00;101720.31;4930186;28;20179;-77
2023/03/20 08:48:35;;;;;;;14.40;7.57;;;;;;;7.40;100.00;101717.66;4927586;28;20047;-75
2023/03/20 08:51:01;;;;;;;16.27;7.43;;;;;;;7.40;100.00;101720.28;4949782;28;20797;-73
2023/03/20 08:53:26;;;;;;;15.82;7.38;;;;;;;7.45;100.00;101722.84;4946249;28;20050;-74
2023/03/20 08:55:53;;;;;;;13.27;7.57;;;;;;;7.46;100.00;101720.19;4945384;28;20645;-74
2023/03/20 08:58:19;;;;;;;14.60;7.93;;;;;;;7.47;100.00;101721.91;4948199;28;20042;-75
2023/03/20 09:00:45;;;;;;;13.57;7.97;;;;;;;7.48;100.00;101706.97;4949793;28;20054;-74
2023/03/20 09:03:13;;;;;;;13.52;7.18;;;;;;;7.51;100.00;101706.91;4944983;28;21612;-74
2023/03/20 09:05:40;;;;;;;11.95;7.20;;;;;;;7.57;100.00;101705.94;4931336;28;20406;-75
2023/03/20 09:08:05;;;;;;;14.13;7.25;;;;;;;7.62;100.00;101701.44;4948427;28;20623;-74
2023/03/20 09:10:33;;;;;;;16.20;7.93;;;;;;;7.65;100.00;101718.97;4930913;28;20050;-74
2023/03/20 09:12:59;;;;;;;11.52;7.65;;;;;;;7.68;100.00;101705.75;4922031;28;20051;-74
2023/03/20 09:15:24;;;;;;;14.57;8.40;;;;;;;7.70;100.00;101718.00;4914064;28;20047;-74
2023/03/20 09:17:50;;;;;;;12.85;7.55;;;;;;;7.74;100.00;101706.47;4932343;28;21694;-75
2023/03/20 09:20:23;;;;;;;15.32;7.80;;;;;;;7.81;100.00;101707.22;4930670;28;20785;-75
2023/03/20 09:22:48;;;;;;;;;;;;;;;7.88;100.00;101708.84;4930522;28;20462;-74
2023/03/20 09:25:14;;;;;;;13.93;7.55;;;;;;;7.94;100.00;101713.13;4929433;28;19985;-74
2023/03/20 09:27:40;;;;;;;14.77;6.90;;;;;;;8.00;100.00;101718.28;4914179;28;20069;-74
2023/03/20 09:30:06;;;;;;;14.23;7.68;;;;;;;8.06;100.00;101716.41;4910764;28;20138;-74
2023/03/20 09:32:33;;;;;;;11.98;7.43;;;;;;;8.05;100.00;101712.03;4930678;28;21703;-75
2023/03/20 09:34:59;;;;;;;17.73;8.00;;;;;;;8.00;100.00;101718.28;4880565;28;20118;-74
2023/03/20 09:37:25;;;;;;;17.15;7.70;;;;;;;7.95;100.00;101706.94;4927901;28;20409;-74
2023/03/20 09:39:50;;;;;;;14.13;7.60;;;;;;;7.94;100.00;101706.97;4928398;28;20612;-74
2023/03/20 09:42:48;;;;;;;14.52;7.30;;;;;;;7.95;100.00;101708.72;4913630;28;20050;-74
2023/03/20 09:45:31;;;;;;;13.82;6.85;;;;;;;7.95;100.00;101712.22;4916871;28;20074;-74
2023/03/20 09:48:34;;;;;;;13.95;6.75;;;;;;;7.96;100.00;101715.72;4898225;28;20039;-74
2023/03/20 09:51:33;;;;;;;11.95;6.32;;;;;;;7.95;100.00;101714.84;4934963;28;20043;-75
2023/03/20 09:54:06;;;;;;;12.02;7.20;;;;;;;7.96;100.00;101716.56;4913017;28;20058;-75
2023/03/20 09:56:32;;;;;;;11.43;6.70;;;;;;;7.97;100.00;101722.72;4899466;28;20051;-76
2023/03/20 09:59:04;;;;;;;12.98;6.15;;;;;;;8.01;100.00;101716.50;4933825;28;20381;-74
2023/03/20 10:01:35;;;;;;;13.15;6.32;;;;;;;7.99;100.00;101721.81;4914852;28;20046;-73
2023/03/20 10:04:07;;;;;;;16.25;5.72;;;;;;;7.99;100.00;101720.94;4935402;28;20106;-74
2023/03/20 10:06:33;;;;;;;11.52;6.00;;;;;;;7.99;100.00;101719.16;4930782;28;20682;-73
2023/03/20 10:08:58;;;;;;;10.45;5.82;;;;;;;7.98;100.00;101717.44;4928926;28;20549;-73
2023/03/20 10:11:52;;;;;;;10.95;6.40;;;;;;;7.97;100.00;101718.34;4931216;28;20098;-73
2023/03/20 10:14:21;;;;;;;;;;;;;;;7.93;100.00;101715.78;4933739;28;20139;-73
2023/03/20 10:16:58;;;;;;;12.45;6.13;;;;;;;7.97;100.00;101723.63;4950767;28;20107;-74
2023/03/20 10:19:30;;;;;;;12.73;6.32;;;;;;;8.04;100.00;101723.47;4935758;28;20056;-74
2023/03/20 10:22:05;;;;;;;10.43;6.20;;;;;;;8.04;100.00;101724.34;4951400;28;20059;-72
2023/03/20 10:25:08;;;;;;;15.85;6.85;;;;;;;8.02;100.00;101726.16;4932191;28;20066;-74
2023/03/20 10:27:39;;;;;;;10.85;6.03;;;;;;;7.99;100.00;101724.44;4953407;28;20479;-73
2023/03/20 10:30:20;;;;;;;11.63;7.03;;;;;;;7.97;100.00;101735.91;4950713;28;20085;-74
2023/03/20 10:33:25;;;;;;;14.55;6.70;;;;;;;7.95;100.00;101729.81;4953428;28;20054;-73
2023/03/20 10:36:04;;;;;;;12.73;5.95;;;;;;;7.93;100.00;101723.69;4925519;28;20046;-74
2023/03/20 10:38:35;;;;;;;9.85;5.50;;;;;;;7.93;100.00;101731.59;4948295;28;20054;-73
2023/03/20 10:41:01;;;;;;;11.98;6.30;;;;;;;7.94;100.00;101735.97;4948108;28;20057;-75
2023/03/20 10:43:33;;;;;;;13.57;6.20;;;;;;;7.97;100.00;101731.53;4928969;28;21925;-77
2023/03/20 10:46:08;;;;;;;13.07;5.80;;;;;;;7.96;100.00;101734.19;4931384;28;20051;-74
2023/03/20 10:48:40;;;;;;;9.63;5.85;;;;;;;7.99;100.00;101721.81;4928738;28;20506;-75
2023/03/20 10:51:13;;;;;;;14.15;6.40;;;;;;;8.04;100.00;101724.34;4944882;28;20050;-73
2023/03/20 10:53:50;;;;;;;10.38;5.88;;;;;;;8.02;100.00;101732.28;4943233;28;20053;-73
2023/03/20 10:56:26;;;;;;;10.80;6.00;;;;;;;8.00;100.00;101726.19;4951551;28;20101;-73
2023/03/20 10:59:00;;;;;;;10.90;5.97;;;;;;;7.96;100.00;101721.84;4930935;28;20600;-73
2023/03/20 11:01:26;;;;;;;11.80;5.97;;;;;;;7.92;100.00;101719.31;4932400;28;20039;-74
2023/03/20 11:03:51;;;;;;;11.18;6.70;;;;;;;7.90;100.00;101714.06;4928433;28;20109;-74
2023/03/20 11:06:20;;;;;;;16.30;6.88;;;;;;;7.94;100.00;101709.59;4928021;28;20101;-73
2023/03/20 11:08:51;;;;;;;14.95;6.25;;;;;;;7.95;100.00;101706.94;4929001;28;20042;-72
2023/03/20 11:11:27;;;;;;;9.60;5.90;;;;;;;8.01;100.00;101703.31;4950355;28;20145;-72
2023/03/20 11:13:54;;;;;;;13.00;6.07;;;;;;;7.99;100.00;101697.19;4935969;28;20226;-73
2023/03/20 11:16:22;;;;;;;13.13;6.15;;;;;;;7.94;100.00;101702.56;4933161;28;20070;-73
2023/03/20 11:18:49;;;;;;;12.65;7.00;;;;;;;7.87;100.00;101701.84;4953652;28;20053;-73
2023/03/20 11:21:28;;;;;;;13.43;6.70;;;;;;;7.75;100.00;101705.56;4950513;28;20616;-74
2023/03/20 11:23:54;;;;;;;12.68;6.38;;;;;;;7.68;100.00;101706.59;4931846;28;20523;-74
2023/03/20 11:26:36;;;;;;;14.10;6.55;;;;;;;7.60;100.00;101706.75;4932850;28;20494;-74
2023/03/20 11:29:05;;;;;;;13.43;6.70;;;;;;;7.54;100.00;101708.63;4948790;28;20097;-74
2023/03/20 11:31:34;;;;;;;12.48;6.95;;;;;;;7.45;100.00;101699.13;4927705;28;20062;-74